Bayanbulak, China
Current Conditions -  °F | °C
As of 4:30 PM on Friday 28 Nov 2014 (Local Time) from ZWWW Reporting Station
Light Snow Light Snow  
Wind Chill: 15°   Ceiling: Unl
Heat Index: 21°   Visibility: 2.5mi
Dew Point: 18°   Wind: 4mph
Humidity: 86%   Direction: 330°NNW
Pressure: 30.36"   Gusts: NA
Location:  43.03°N, 84.15°E
Report Text: ZWWW 280830Z 33002MPS 4000 -SN BR SCT046 M06/M08 Q1028 NOSIG
Loading
Personal Weather Stations






























Interactive Weather Map New forecast layout! Learn more

10-Day Weather Forecast

Advertisements
Track Severe Weather on mobile